Time;durP1;ratioP1;P1;durP2;ratioP2;P2;SDS_P1;SDS_P2;PMS_P1;PMS_P2;Temp;Humidity;BMP_temperature;BMP_pressure;BME280_temperature;BME280_humidity;BME280_pressure;Samples;Min_cycle;Max_cycle;Signal;HPM_P1;HPM_P2
2022/01/20 00:01:44;;;;;;;7.72;2.20;;;;;;;;;;4992395;28;94133;-71
2022/01/20 00:04:19;;;;;;;14.95;2.97;;;;;;;;;;4991840;28;94015;-71
2022/01/20 00:07:25;;;;;;;22.15;4.07;;;;;;;;;;4989280;28;92710;-71
2022/01/20 00:23:15;;;;;;;8.10;2.28;;;;;;;;;;4993537;28;93852;-72
2022/01/20 00:26:05;;;;;;;21.55;3.58;;;;;;;;;;4980978;28;94099;-72
2022/01/20 00:28:43;;;;;;;20.80;3.60;;;;;;;;;;4985159;28;94299;-72
2022/01/20 00:33:43;;;;;;;23.13;3.55;;;;;;;;;;4987970;28;93276;-71
2022/01/20 00:38:37;;;;;;;15.93;2.30;;;;;;;;;;4987607;28;93153;-72
2022/01/20 00:41:04;;;;;;;14.52;3.85;;;;;;;;;;4984283;28;94157;-72
2022/01/20 00:43:31;;;;;;;21.75;4.00;;;;;;;;;;4978200;28;96464;-71
2022/01/20 00:45:58;;;;;;;13.77;3.60;;;;;;;;;;4974132;28;96222;-72
2022/01/20 00:48:25;;;;;;;17.50;3.08;;;;;;;;;;4987946;28;93008;-71
2022/01/20 00:50:51;;;;;;;13.93;2.70;;;;;;;;;;4982896;28;94014;-71
2022/01/20 00:53:17;;;;;;;13.43;2.20;;;;;;;;;;4973550;28;93470;-71
2022/01/20 00:55:44;;;;;;;19.17;4.18;;;;;;;;;;4984507;28;93603;-71
2022/01/20 00:58:10;;;;;;;27.92;3.83;;;;;;;;;;4982801;28;93310;-71
2022/01/20 01:00:37;;;;;;;12.57;3.05;;;;;;;;;;4985434;28;93307;-71
2022/01/20 01:03:03;;;;;;;9.90;2.45;;;;;;;;;;4984384;28;92487;-71
2022/01/20 01:05:30;;;;;;;23.45;3.13;;;;;;;;;;4987222;28;93128;-71
2022/01/20 01:07:57;;;;;;;22.23;4.75;;;;;;;;;;4981492;28;96719;-71
2022/01/20 01:10:28;;;;;;;16.15;3.03;;;;;;;;;;4984042;28;95910;-72
2022/01/20 01:15:26;;;;;;;19.02;3.55;;;;;;;;;;4963660;28;93944;-71
2022/01/20 01:23:26;;;;;;;23.15;3.88;;;;;;;;;;4985270;28;93959;-72
2022/01/20 01:25:55;;;;;;;22.38;4.35;;;;;;;;;;4989118;28;93242;-72
2022/01/20 01:28:25;;;;;;;23.67;3.22;;;;;;;;;;4995565;28;92810;-72
2022/01/20 01:33:40;;;;;;;16.15;4.10;;;;;;;;;;4982229;28;95476;-72
2022/01/20 01:36:08;;;;;;;23.95;4.80;;;;;;;;;;4986279;28;93961;-73
2022/01/20 01:38:39;;;;;;;22.00;3.38;;;;;;;;;;4977406;28;95214;-71
2022/01/20 01:41:09;;;;;;;21.98;4.18;;;;;;;;;;4986773;28;93211;-71
2022/01/20 01:43:37;;;;;;;20.20;3.88;;;;;;;;;;4996472;28;93331;-70
2022/01/20 01:46:04;;;;;;;19.45;3.38;;;;;;;;;;4978663;28;94359;-71
2022/01/20 01:48:34;;;;;;;24.00;4.65;;;;;;;;;;4977111;28;95274;-71
2022/01/20 01:51:00;;;;;;;27.50;3.72;;;;;;;;;;4982586;28;93858;-70
2022/01/20 01:53:28;;;;;;;19.85;3.90;;;;;;;;;;4972427;28;95841;-71
2022/01/20 01:55:55;;;;;;;20.88;3.97;;;;;;;;;;4989901;28;93324;-71
2022/01/20 01:58:22;;;;;;;15.63;3.45;;;;;;;;;;4970774;28;97123;-71
2022/01/20 02:01:06;;;;;;;20.42;4.35;;;;;;;;;;4975758;28;95393;-71
2022/01/20 02:03:43;;;;;;;21.58;3.50;;;;;;;;;;4972437;28;93065;-71
2022/01/20 02:06:48;;;;;;;19.20;3.23;;;;;;;;;;4990185;28;95863;-71
2022/01/20 02:20:44;;;;;;;10.48;2.50;;;;;;;;;;4968945;28;95128;-69
2022/01/20 02:23:13;;;;;;;7.40;2.08;;;;;;;;;;4974094;28;95395;-70
2022/01/20 02:25:41;;;;;;;17.38;2.60;;;;;;;;;;4970031;28;96114;-70
2022/01/20 02:28:08;;;;;;;11.75;3.08;;;;;;;;;;5000769;28;99425;-70
2022/01/20 02:30:36;;;;;;;17.10;3.88;;;;;;;;;;4997717;28;95616;-70
2022/01/20 02:33:08;;;;;;;19.63;3.20;;;;;;;;;;4984428;28;92561;-70
2022/01/20 02:35:35;;;;;;;14.40;2.80;;;;;;;;;;4977619;28;94677;-70
2022/01/20 02:38:24;;;;;;;9.05;3.08;;;;;;;;;;4976138;28;93399;-70
2022/01/20 02:46:21;;;;;;;8.43;1.95;;;;;;;;;;4998321;28;92611;-71
2022/01/20 02:48:48;;;;;;;13.50;2.72;;;;;;;;;;4975028;28;94996;-71
2022/01/20 02:51:14;;;;;;;12.65;2.53;;;;;;;;;;4985619;28;96948;-71
2022/01/20 02:53:43;;;;;;;11.80;2.47;;;;;;;;;;4971206;28;92626;-70
2022/01/20 02:56:09;;;;;;;11.00;2.03;;;;;;;;;;4995111;28;94241;-70
2022/01/20 02:58:36;;;;;;;12.82;2.65;;;;;;;;;;4990031;28;93428;-71
2022/01/20 03:01:03;;;;;;;19.55;2.97;;;;;;;;;;4972236;28;93032;-71
2022/01/20 03:03:29;;;;;;;18.70;3.47;;;;;;;;;;4984598;28;93340;-70
2022/01/20 03:05:56;;;;;;;13.02;2.78;;;;;;;;;;4985085;28;93205;-70
2022/01/20 03:08:22;;;;;;;13.38;2.58;;;;;;;;;;4974440;28;94089;-70
2022/01/20 03:10:49;;;;;;;13.00;3.00;;;;;;;;;;4985692;28;94480;-70
2022/01/20 03:13:15;;;;;;;10.10;2.33;;;;;;;;;;4988914;28;92905;-70
2022/01/20 03:15:42;;;;;;;15.25;2.88;;;;;;;;;;4971754;28;96616;-69
2022/01/20 03:18:09;;;;;;;11.20;2.65;;;;;;;;;;4972289;28;96149;-71
2022/01/20 03:20:35;;;;;;;21.48;2.40;;;;;;;;;;4975463;28;93877;-69
2022/01/20 03:23:02;;;;;;;20.48;3.47;;;;;;;;;;4989506;28;93390;-69
2022/01/20 03:25:29;;;;;;;13.38;2.20;;;;;;;;;;4971924;28;93676;-70
2022/01/20 03:27:56;;;;;;;18.02;3.78;;;;;;;;;;4988550;28;93169;-70
2022/01/20 03:30:23;;;;;;;13.77;2.70;;;;;;;;;;4973031;28;94565;-70
2022/01/20 03:32:50;;;;;;;5.97;1.98;;;;;;;;;;4973180;28;92092;-70
2022/01/20 03:35:17;;;;;;;8.70;1.63;;;;;;;;;;4982561;28;94308;-70
2022/01/20 03:37:54;;;;;;;8.93;1.77;;;;;;;;;;4966006;28;94703;-70
2022/01/20 03:40:23;;;;;;;7.18;1.83;;;;;;;;;;4971610;28;97175;-70
2022/01/20 03:42:50;;;;;;;15.25;2.42;;;;;;;;;;4970231;28;95723;-70
2022/01/20 03:45:16;;;;;;;8.40;2.78;;;;;;;;;;4968916;28;92648;-70
2022/01/20 03:47:43;;;;;;;14.07;2.20;;;;;;;;;;4973519;28;96063;-70
2022/01/20 03:50:59;;;;;;;13.73;4.03;;;;;;;;;;4970418;28;97348;-69
2022/01/20 03:52:56;;;;;;;10.82;2.00;;;;;;;;;;4989218;28;93577;-69
2022/01/20 03:55:22;;;;;;;7.28;1.83;;;;;;;;;;4969748;28;95750;-69
2022/01/20 03:58:00;;;;;;;14.35;2.00;;;;;;;;;;4969154;28;96728;-70
2022/01/20 04:00:32;;;;;;;5.90;2.10;;;;;;;;;;4985213;28;93234;-70
2022/01/20 04:03:16;;;;;;;9.35;1.48;;;;;;;;;;4988997;28;93860;-69
2022/01/20 04:08:32;;;;;;;11.60;1.95;;;;;;;;;;4969098;28;98061;-69
2022/01/20 04:11:00;;;;;;;8.95;1.85;;;;;;;;;;4970574;28;94244;-70
2022/01/20 04:13:31;;;;;;;8.55;1.92;;;;;;;;;;4984110;28;92600;-70
2022/01/20 04:16:01;;;;;;;9.05;1.60;;;;;;;;;;4965808;28;94001;-70
2022/01/20 04:18:28;;;;;;;13.07;2.90;;;;;;;;;;4967803;28;95839;-70
2022/01/20 04:20:55;;;;;;;18.45;3.92;;;;;;;;;;4970971;28;93838;-70
2022/01/20 04:23:22;;;;;;;11.23;2.30;;;;;;;;;;4979054;28;96375;-70
2022/01/20 04:25:49;;;;;;;5.95;2.42;;;;;;;;;;4965418;28;94224;-70
2022/01/20 04:28:15;;;;;;;10.15;2.92;;;;;;;;;;4967592;28;96041;-70
2022/01/20 04:30:42;;;;;;;10.82;2.25;;;;;;;;;;4982180;28;95602;-71
2022/01/20 04:33:08;;;;;;;10.18;1.70;;;;;;;;;;4971900;28;94179;-70
2022/01/20 04:35:35;;;;;;;19.95;3.20;;;;;;;;;;4969259;28;94085;-70
2022/01/20 04:38:02;;;;;;;12.70;3.00;;;;;;;;;;4968177;28;95999;-70
2022/01/20 04:40:35;;;;;;;15.90;2.67;;;;;;;;;;4973798;28;92955;-70
2022/01/20 04:43:02;;;;;;;10.85;2.78;;;;;;;;;;4999766;28;97153;-70
2022/01/20 04:45:33;;;;;;;14.32;2.83;;;;;;;;;;4963944;28;96324;-70
2022/01/20 04:48:27;;;;;;;15.10;2.78;;;;;;;;;;5002722;28;92227;-70
2022/01/20 04:59:11;;;;;;;12.93;2.88;;;;;;;;;;4969178;28;95000;-70
2022/01/20 05:01:44;;;;;;;13.25;2.75;;;;;;;;;;4967517;28;93421;-71
2022/01/20 05:04:18;;;;;;;17.05;3.35;;;;;;;;;;4983966;28;94393;-70
2022/01/20 05:07:07;;;;;;;20.05;3.95;;;;;;;;;;4984762;28;95440;-69
2022/01/20 05:09:33;;;;;;;15.63;2.70;;;;;;;;;;4975218;28;92578;-69
2022/01/20 05:12:04;;;;;;;21.80;3.47;;;;;;;;;;4980303;28;95512;-69
2022/01/20 05:14:31;;;;;;;21.38;4.22;;;;;;;;;;4999993;28;93267;-70
2022/01/20 05:16:58;;;;;;;26.65;4.13;;;;;;;;;;4980733;28;94742;-70
2022/01/20 05:19:26;;;;;;;30.80;4.07;;;;;;;;;;4974034;28;93085;-70
2022/01/20 05:21:53;;;;;;;30.10;4.30;;;;;;;;;;4989837;28;95614;-70
2022/01/20 05:24:26;;;;;;;13.93;3.22;;;;;;;;;;4972312;28;99351;-70
2022/01/20 05:26:55;;;;;;;23.75;4.43;;;;;;;;;;4977057;28;95916;-69
2022/01/20 05:29:22;;;;;;;20.95;5.85;;;;;;;;;;4969145;28;92760;-69
2022/01/20 05:31:49;;;;;;;13.43;3.00;;;;;;;;;;4991136;28;94086;-70
2022/01/20 05:34:16;;;;;;;22.77;4.68;;;;;;;;;;4975968;28;95632;-70
2022/01/20 05:36:44;;;;;;;23.52;4.70;;;;;;;;;;4971362;28;95541;-69
2022/01/20 05:39:10;;;;;;;21.05;4.88;;;;;;;;;;4973082;28;93641;-69
2022/01/20 05:41:36;;;;;;;29.27;4.55;;;;;;;;;;4973563;28;93702;-69
2022/01/20 05:44:14;;;;;;;12.63;3.00;;;;;;;;;;4985793;28;95003;-70
2022/01/20 05:46:47;;;;;;;17.42;2.70;;;;;;;;;;4966487;28;98379;-70
2022/01/20 05:49:34;;;;;;;23.20;5.10;;;;;;;;;;4955843;28;94520;-70
2022/01/20 05:52:03;;;;;;;25.00;3.38;;;;;;;;;;4970030;28;95436;-70
2022/01/20 05:54:30;;;;;;;28.05;4.57;;;;;;;;;;4975685;28;95850;-70
2022/01/20 05:56:57;;;;;;;29.60;5.45;;;;;;;;;;4971186;28;97138;-70
2022/01/20 05:59:24;;;;;;;17.45;3.20;;;;;;;;;;4971640;28;93553;-70
2022/01/20 06:01:58;;;;;;;15.80;3.53;;;;;;;;;;4972062;28;94157;-70
2022/01/20 06:04:30;;;;;;;20.08;3.67;;;;;;;;;;4971293;28;94991;-70
2022/01/20 06:06:56;;;;;;;26.58;4.57;;;;;;;;;;4973360;28;95820;-70
2022/01/20 06:09:23;;;;;;;10.95;3.20;;;;;;;;;;4974513;28;92967;-70
2022/01/20 06:11:50;;;;;;;23.08;3.65;;;;;;;;;;4983475;28;97277;-70
2022/01/20 06:14:16;;;;;;;8.57;2.22;;;;;;;;;;4983521;28;96017;-70
2022/01/20 06:16:43;;;;;;;25.30;3.60;;;;;;;;;;4973965;28;93195;-70
2022/01/20 06:19:10;;;;;;;18.92;3.53;;;;;;;;;;4971710;28;95409;-70
2022/01/20 06:21:41;;;;;;;11.77;2.80;;;;;;;;;;4975017;28;94442;-70
2022/01/20 06:24:08;;;;;;;15.75;3.28;;;;;;;;;;4968202;28;95171;-70
2022/01/20 06:26:34;;;;;;;14.88;3.53;;;;;;;;;;4968634;28;95118;-70
2022/01/20 06:29:02;;;;;;;11.15;3.08;;;;;;;;;;4971826;28;92283;-70
2022/01/20 06:31:28;;;;;;;12.95;2.88;;;;;;;;;;4981783;28;93912;-70
2022/01/20 06:33:55;;;;;;;12.88;3.10;;;;;;;;;;4972025;28;94139;-71
2022/01/20 06:36:22;;;;;;;18.55;3.50;;;;;;;;;;4966627;28;96733;-71
2022/01/20 06:38:48;;;;;;;12.13;2.78;;;;;;;;;;4975584;28;98021;-71
2022/01/20 06:41:15;;;;;;;11.00;2.75;;;;;;;;;;4969609;28;93884;-71
2022/01/20 06:43:42;;;;;;;9.55;2.72;;;;;;;;;;4971851;28;95366;-71
2022/01/20 06:46:08;;;;;;;7.90;3.22;;;;;;;;;;4983898;28;94334;-72
2022/01/20 06:48:49;;;;;;;16.27;2.65;;;;;;;;;;4972014;28;94128;-71
2022/01/20 06:51:36;;;;;;;7.05;1.80;;;;;;;;;;4971048;28;93944;-71
2022/01/20 06:54:04;;;;;;;18.95;2.50;;;;;;;;;;4971965;28;93793;-72
2022/01/20 06:56:31;;;;;;;11.05;2.92;;;;;;;;;;4971736;28;94175;-72
2022/01/20 06:59:09;;;;;;;11.05;2.20;;;;;;;;;;4971536;28;93187;-71
2022/01/20 07:01:36;;;;;;;15.82;3.72;;;;;;;;;;4971591;28;97638;-72
2022/01/20 07:04:03;;;;;;;16.23;3.00;;;;;;;;;;4971618;28;96696;-71
2022/01/20 07:06:29;;;;;;;15.25;2.90;;;;;;;;;;4969794;28;95748;-71
2022/01/20 07:09:15;;;;;;;11.73;3.08;;;;;;;;;;4983046;28;92598;-71
2022/01/20 07:11:42;;;;;;;15.43;2.53;;;;;;;;;;4982844;28;94427;-71
2022/01/20 07:14:09;;;;;;;13.00;2.75;;;;;;;;;;4972608;28;95946;-71
2022/01/20 07:16:35;;;;;;;11.68;2.33;;;;;;;;;;4971717;28;92783;-72
2022/01/20 07:19:05;;;;;;;14.30;3.13;;;;;;;;;;4971515;28;93037;-71
2022/01/20 07:21:32;;;;;;;13.93;2.90;;;;;;;;;;4973485;28;94228;-72
2022/01/20 07:24:01;;;;;;;14.05;2.60;;;;;;;;;;4977727;28;92651;-72
2022/01/20 07:26:27;;;;;;;4.47;1.65;;;;;;;;;;4977844;28;98281;-72
2022/01/20 07:29:04;;;;;;;11.63;2.75;;;;;;;;;;4974815;28;92811;-74
2022/01/20 07:31:31;;;;;;;9.38;2.42;;;;;;;;;;4977557;28;94559;-72
2022/01/20 07:33:57;;;;;;;13.18;2.78;;;;;;;;;;4971649;28;95329;-71
2022/01/20 07:36:23;;;;;;;13.75;3.80;;;;;;;;;;4973389;28;94011;-71
2022/01/20 07:38:50;;;;;;;5.97;2.17;;;;;;;;;;4976324;28;94845;-71
2022/01/20 07:41:18;;;;;;;15.27;2.75;;;;;;;;;;4969421;28;95939;-72
2022/01/20 07:43:45;;;;;;;15.82;2.03;;;;;;;;;;4975109;28;93295;-71
2022/01/20 07:46:35;;;;;;;10.68;2.75;;;;;;;;;;4969304;28;92785;-74
2022/01/20 07:49:04;;;;;;;9.35;1.75;;;;;;;;;;4968816;28;92693;-73
2022/01/20 07:51:32;;;;;;;8.73;2.70;;;;;;;;;;4968092;28;95240;-71
2022/01/20 07:54:00;;;;;;;6.28;2.15;;;;;;;;;;4974997;28;93486;-71
2022/01/20 07:56:27;;;;;;;8.27;2.08;;;;;;;;;;4974322;28;93051;-71
2022/01/20 07:58:53;;;;;;;11.15;2.45;;;;;;;;;;4992755;28;93005;-71
2022/01/20 08:01:22;;;;;;;5.50;1.92;;;;;;;;;;4971618;28;95700;-71
2022/01/20 08:04:00;;;;;;;18.95;2.85;;;;;;;;;;4973247;28;93316;-71
2022/01/20 08:06:28;;;;;;;14.75;2.78;;;;;;;;;;4977217;28;95453;-71
2022/01/20 08:09:04;;;;;;;8.40;2.47;;;;;;;;;;4974712;28;91791;-71
2022/01/20 08:11:38;;;;;;;18.38;2.47;;;;;;;;;;4999548;28;94553;-72
2022/01/20 08:14:28;;;;;;;15.48;3.47;;;;;;;;;;4973472;28;93451;-71
2022/01/20 08:16:54;;;;;;;12.82;2.83;;;;;;;;;;4971206;28;94993;-70
2022/01/20 08:19:21;;;;;;;11.07;2.45;;;;;;;;;;4966147;28;97177;-71
2022/01/20 08:21:48;;;;;;;14.25;2.65;;;;;;;;;;4974032;28;95785;-71
2022/01/20 08:24:15;;;;;;;13.02;2.47;;;;;;;;;;4968946;28;93999;-71
2022/01/20 08:26:42;;;;;;;11.27;2.70;;;;;;;;;;4974528;28;94505;-71
2022/01/20 08:29:09;;;;;;;23.52;2.40;;;;;;;;;;4976042;28;95728;-72
2022/01/20 08:31:40;;;;;;;13.98;2.92;;;;;;;;;;4972268;28;96593;-71
2022/01/20 08:34:26;;;;;;;4.78;1.85;;;;;;;;;;4974021;28;94583;-72
2022/01/20 08:37:25;;;;;;;14.77;2.65;;;;;;;;;;4975885;28;92675;-71
2022/01/20 08:39:52;;;;;;;13.70;2.83;;;;;;;;;;4973099;28;94971;-72
2022/01/20 08:42:18;;;;;;;6.20;2.50;;;;;;;;;;4974587;28;98401;-71
2022/01/20 08:44:45;;;;;;;9.85;2.33;;;;;;;;;;4975280;28;93447;-71
2022/01/20 08:47:17;;;;;;;20.75;3.20;;;;;;;;;;4974390;28;95191;-72
2022/01/20 08:49:47;;;;;;;12.25;2.60;;;;;;;;;;4975631;28;95931;-71
2022/01/20 08:52:14;;;;;;;11.98;2.50;;;;;;;;;;4976233;28;92553;-72
2022/01/20 08:54:47;;;;;;;19.98;3.58;;;;;;;;;;4973529;28;95576;-72
2022/01/20 08:57:32;;;;;;;20.70;4.47;;;;;;;;;;4990197;28;92883;-71
2022/01/20 08:59:58;;;;;;;10.45;2.50;;;;;;;;;;4972830;28;95089;-71
2022/01/20 09:02:26;;;;;;;14.00;3.03;;;;;;;;;;4972705;28;95605;-72
2022/01/20 09:04:52;;;;;;;18.23;2.83;;;;;;;;;;4970970;28;92516;-72
2022/01/20 09:07:57;;;;;;;11.48;3.28;;;;;;;;;;4978817;28;95907;-72
2022/01/20 09:10:23;;;;;;;15.32;3.17;;;;;;;;;;4980846;28;93567;-72
2022/01/20 09:15:28;;;;;;;13.40;2.88;;;;;;;;;;4983425;28;95422;-71
2022/01/20 09:18:05;;;;;;;18.83;3.58;;;;;;;;;;4973168;28;92710;-71
2022/01/20 09:20:34;;;;;;;16.45;3.78;;;;;;;;;;4979106;28;93836;-72
2022/01/20 09:23:01;;;;;;;15.18;3.15;;;;;;;;;;4998513;28;95833;-71
2022/01/20 09:25:28;;;;;;;15.48;2.60;;;;;;;;;;4979990;28;92171;-71
2022/01/20 09:27:57;;;;;;;13.10;2.58;;;;;;;;;;4973576;28;94575;-71
2022/01/20 09:30:25;;;;;;;11.40;2.65;;;;;;;;;;4979616;28;94942;-71
2022/01/20 09:33:12;;;;;;;15.10;2.95;;;;;;;;;;4973637;28;96115;-71
2022/01/20 09:35:39;;;;;;;12.45;3.17;;;;;;;;;;4976946;28;97903;-71
2022/01/20 09:38:08;;;;;;;19.05;3.92;;;;;;;;;;4976666;28;96995;-71
2022/01/20 09:40:39;;;;;;;13.43;2.75;;;;;;;;;;4974064;28;93774;-71
2022/01/20 09:43:07;;;;;;;14.70;2.72;;;;;;;;;;5001165;28;95143;-71
2022/01/20 09:45:33;;;;;;;16.05;3.83;;;;;;;;;;4980080;28;92499;-71
2022/01/20 09:48:01;;;;;;;15.50;3.40;;;;;;;;;;4975622;28;95070;-71
2022/01/20 09:50:48;;;;;;;14.65;2.67;;;;;;;;;;4999286;28;92552;-71
2022/01/20 09:53:29;;;;;;;20.30;2.75;;;;;;;;;;4989917;28;92495;-71
2022/01/20 09:56:06;;;;;;;8.38;1.90;;;;;;;;;;4976866;28;95430;-71
2022/01/20 09:58:37;;;;;;;10.70;2.70;;;;;;;;;;4977254;28;97876;-71
2022/01/20 10:01:03;;;;;;;7.20;1.83;;;;;;;;;;5004955;28;93033;-71
2022/01/20 10:03:31;;;;;;;11.82;2.25;;;;;;;;;;4974755;28;95685;-71
2022/01/20 10:06:00;;;;;;;9.63;3.08;;;;;;;;;;4976640;28;92667;-71
2022/01/20 10:08:28;;;;;;;5.88;1.83;;;;;;;;;;4976228;28;95487;-71
2022/01/20 10:11:24;;;;;;;20.27;3.45;;;;;;;;;;4978450;28;94732;-71
2022/01/20 10:14:05;;;;;;;16.08;2.67;;;;;;;;;;4975017;28;93260;-71
2022/01/20 10:16:50;;;;;;;10.85;2.40;;;;;;;;;;4995436;28;92439;-71
2022/01/20 10:19:22;;;;;;;14.50;3.20;;;;;;;;;;4979959;28;93602;-71
2022/01/20 10:21:49;;;;;;;19.15;2.60;;;;;;;;;;4981908;28;92558;-71
2022/01/20 10:25:08;;;;;;;8.85;2.45;;;;;;;;;;4988895;28;96183;-71
2022/01/20 10:27:52;;;;;;;9.43;2.65;;;;;;;;;;4976046;28;92803;-71
2022/01/20 10:30:19;;;;;;;11.90;3.05;;;;;;;;;;4979841;28;95882;-72
2022/01/20 10:32:47;;;;;;;18.23;4.15;;;;;;;;;;4974391;28;95740;-70
2022/01/20 10:35:16;;;;;;;15.98;2.35;;;;;;;;;;4974754;28;93074;-70
2022/01/20 10:38:10;;;;;;;16.77;3.05;;;;;;;;;;4980055;28;94672;-70
2022/01/20 10:40:47;;;;;;;10.70;2.47;;;;;;;;;;4976850;28;94105;-70
2022/01/20 10:43:25;;;;;;;14.68;2.53;;;;;;;;;;4973935;28;93409;-70
2022/01/20 10:46:08;;;;;;;16.45;2.90;;;;;;;;;;4975270;28;93550;-71
2022/01/20 10:48:35;;;;;;;16.83;2.72;;;;;;;;;;4993019;28;93955;-71
2022/01/20 10:51:24;;;;;;;17.48;2.70;;;;;;;;;;4977742;28;95003;-71
2022/01/20 10:53:58;;;;;;;16.50;4.05;;;;;;;;;;4975590;28;93224;-71
2022/01/20 10:56:26;;;;;;;9.50;1.65;;;;;;;;;;5004796;28;92636;-70
2022/01/20 10:58:52;;;;;;;10.35;2.45;;;;;;;;;;4961217;28;95988;-71
2022/01/20 11:01:19;;;;;;;14.60;2.83;;;;;;;;;;4972554;28;95916;-71
2022/01/20 11:03:45;;;;;;;10.68;2.38;;;;;;;;;;4969320;28;93180;-72
2022/01/20 11:06:18;;;;;;;3.80;1.50;;;;;;;;;;4976401;28;95282;-72
2022/01/20 11:08:58;;;;;;;7.90;2.10;;;;;;;;;;5001148;28;91769;-74
2022/01/20 11:11:41;;;;;;;9.85;1.67;;;;;;;;;;5006135;28;93499;-69
2022/01/20 11:14:23;;;;;;;4.82;1.83;;;;;;;;;;4974367;28;94439;-69
2022/01/20 11:16:50;;;;;;;3.95;1.67;;;;;;;;;;4972056;28;96496;-69
2022/01/20 11:19:20;;;;;;;9.27;2.42;;;;;;;;;;4986151;28;97994;-69
2022/01/20 11:21:49;;;;;;;8.10;2.25;;;;;;;;;;4978279;28;95435;-69
2022/01/20 11:24:25;;;;;;;7.30;2.50;;;;;;;;;;4974604;28;92530;-69
2022/01/20 11:27:11;;;;;;;6.82;2.00;;;;;;;;;;4949111;28;92586;-69
2022/01/20 11:30:11;;;;;;;10.70;2.08;;;;;;;;;;4951518;28;92720;-69
2022/01/20 11:32:45;;;;;;;4.13;1.35;;;;;;;;;;4955101;28;92892;-69
2022/01/20 11:35:18;;;;;;;7.10;2.35;;;;;;;;;;4954830;28;93968;-69
2022/01/20 11:37:54;;;;;;;9.65;1.83;;;;;;;;;;4953530;28;93969;-69
2022/01/20 11:40:23;;;;;;;7.60;2.22;;;;;;;;;;4942866;28;94300;-69
2022/01/20 11:43:05;;;;;;;6.43;2.67;;;;;;;;;;4946541;28;97006;-69
2022/01/20 11:45:34;;;;;;;10.10;2.05;;;;;;;;;;4956839;28;92516;-69
2022/01/20 11:48:20;;;;;;;9.35;2.13;;;;;;;;;;4947844;28;94926;-69
2022/01/20 11:50:48;;;;;;;10.13;1.95;;;;;;;;;;4945056;28;94162;-69
2022/01/20 11:53:16;;;;;;;9.55;2.17;;;;;;;;;;4952312;28;92546;-69
2022/01/20 11:55:47;;;;;;;8.68;2.85;;;;;;;;;;4954709;28;93755;-69
2022/01/20 11:58:16;;;;;;;13.70;4.13;;;;;;;;;;4952119;28;92509;-69
2022/01/20 12:00:42;;;;;;;7.10;1.75;;;;;;;;;;4953026;28;94189;-69
2022/01/20 12:03:17;;;;;;;9.70;2.38;;;;;;;;;;4948686;28;94198;-69
2022/01/20 12:05:56;;;;;;;17.98;2.25;;;;;;;;;;4960550;28;93044;-69
2022/01/20 12:08:31;;;;;;;12.52;2.13;;;;;;;;;;4944374;28;96086;-70
2022/01/20 12:11:02;;;;;;;10.45;2.13;;;;;;;;;;4948868;28;96014;-69
2022/01/20 12:13:30;;;;;;;12.60;3.22;;;;;;;;;;4952609;28;92647;-70
2022/01/20 12:16:01;;;;;;;10.27;2.10;;;;;;;;;;4969768;28;93523;-68
2022/01/20 12:18:28;;;;;;;11.85;2.30;;;;;;;;;;4970022;28;92517;-68
2022/01/20 12:20:54;;;;;;;12.55;2.42;;;;;;;;;;4966021;28;94080;-70
2022/01/20 12:23:24;;;;;;;13.68;2.83;;;;;;;;;;4948118;28;93972;-69
2022/01/20 12:25:50;;;;;;;17.90;2.58;;;;;;;;;;4966027;28;94479;-70
2022/01/20 12:28:17;;;;;;;22.25;2.92;;;;;;;;;;4994145;28;93200;-70
2022/01/20 12:30:47;;;;;;;8.88;2.47;;;;;;;;;;4987848;28;93655;-69
2022/01/20 12:33:18;;;;;;;13.55;2.30;;;;;;;;;;4986841;28;95256;-70
2022/01/20 12:35:46;;;;;;;19.08;3.10;;;;;;;;;;4991064;28;97093;-70
2022/01/20 12:38:33;;;;;;;10.10;2.60;;;;;;;;;;4990008;28;93882;-70
2022/01/20 12:41:02;;;;;;;14.63;3.00;;;;;;;;;;4994044;28;94083;-70
2022/01/20 12:43:48;;;;;;;10.60;3.05;;;;;;;;;;4995617;28;94204;-69
2022/01/20 12:46:16;;;;;;;14.45;2.72;;;;;;;;;;4991845;28;94020;-69
2022/01/20 12:48:50;;;;;;;16.85;3.20;;;;;;;;;;4996191;28;94442;-69
2022/01/20 12:51:17;;;;;;;20.40;3.20;;;;;;;;;;4992735;28;92985;-69
2022/01/20 12:53:54;;;;;;;16.88;3.83;;;;;;;;;;4997147;28;93431;-70
2022/01/20 12:56:27;;;;;;;7.93;2.25;;;;;;;;;;4991530;28;93910;-69
2022/01/20 12:58:54;;;;;;;14.50;3.45;;;;;;;;;;4989871;28;96664;-70
2022/01/20 13:01:20;;;;;;;12.55;2.70;;;;;;;;;;4994709;28;93811;-70
2022/01/20 13:03:47;;;;;;;14.10;2.40;;;;;;;;;;4997722;28;93828;-69
2022/01/20 13:06:25;;;;;;;20.70;2.80;;;;;;;;;;4989428;28;92522;-69
2022/01/20 13:08:58;;;;;;;14.77;2.95;;;;;;;;;;4985288;28;94008;-69
2022/01/20 13:11:28;;;;;;;12.15;2.97;;;;;;;;;;4989495;28;94315;-70
2022/01/20 13:13:55;;;;;;;16.35;3.30;;;;;;;;;;4993974;28;94092;-69
2022/01/20 13:16:21;;;;;;;11.27;2.75;;;;;;;;;;4994441;28;94706;-70
2022/01/20 13:18:51;;;;;;;13.30;2.80;;;;;;;;;;4989575;28;93462;-70
2022/01/20 13:21:18;;;;;;;9.93;2.53;;;;;;;;;;4989306;28;92701;-70
2022/01/20 13:23:57;;;;;;;11.48;2.65;;;;;;;;;;4996227;28;95003;-70
2022/01/20 13:26:25;;;;;;;15.32;2.58;;;;;;;;;;4994085;28;92591;-70
2022/01/20 13:28:58;;;;;;;11.65;3.03;;;;;;;;;;4988919;28;94024;-70
2022/01/20 13:31:34;;;;;;;11.35;2.53;;;;;;;;;;4986538;28;93253;-69
2022/01/20 13:34:11;;;;;;;15.77;3.35;;;;;;;;;;4993426;28;92934;-70
2022/01/20 13:36:42;;;;;;;8.55;2.35;;;;;;;;;;4994738;28;93371;-69
2022/01/20 13:39:08;;;;;;;13.88;2.50;;;;;;;;;;4994289;28;95073;-70
2022/01/20 13:41:35;;;;;;;17.40;3.05;;;;;;;;;;4994838;28;91732;-70
2022/01/20 13:46:59;;;;;;;9.63;1.80;;;;;;;;;;4997831;28;94110;-70
2022/01/20 13:49:25;;;;;;;16.90;3.00;;;;;;;;;;4992760;28;94940;-69
2022/01/20 13:52:06;;;;;;;12.80;3.08;;;;;;;;;;4994961;28;94286;-70
2022/01/20 13:54:36;;;;;;;19.75;3.67;;;;;;;;;;4987188;28;94976;-69
2022/01/20 13:57:23;;;;;;;16.38;2.30;;;;;;;;;;4993681;28;92790;-69
2022/01/20 13:59:54;;;;;;;14.80;2.65;;;;;;;;;;4993806;28;92834;-70
2022/01/20 14:02:21;;;;;;;15.68;3.10;;;;;;;;;;4993604;28;92750;-70
2022/01/20 14:04:49;;;;;;;16.25;3.05;;;;;;;;;;4994489;28;93997;-69
2022/01/20 14:07:15;;;;;;;11.82;3.13;;;;;;;;;;4992160;28;92762;-69
2022/01/20 14:09:42;;;;;;;15.10;2.97;;;;;;;;;;4996218;28;92532;-70
2022/01/20 14:12:09;;;;;;;24.65;4.03;;;;;;;;;;4994095;28;94152;-69
2022/01/20 14:14:36;;;;;;;14.63;3.30;;;;;;;;;;4993138;28;94865;-70
2022/01/20 14:17:07;;;;;;;23.38;3.45;;;;;;;;;;4993530;28;95449;-70
2022/01/20 14:19:36;;;;;;;16.98;3.38;;;;;;;;;;4993236;28;93706;-69
2022/01/20 14:22:03;;;;;;;12.43;2.20;;;;;;;;;;4993943;28;92507;-70
2022/01/20 14:24:29;;;;;;;8.85;3.00;;;;;;;;;;4990125;28;93474;-70
2022/01/20 14:27:08;;;;;;;11.73;2.50;;;;;;;;;;4993542;28;94205;-70
2022/01/20 14:29:35;;;;;;;16.98;3.15;;;;;;;;;;4996819;28;92975;-69
2022/01/20 14:32:01;;;;;;;25.45;3.33;;;;;;;;;;4992935;28;91883;-70
2022/01/20 14:34:27;;;;;;;15.93;3.10;;;;;;;;;;4994010;28;92474;-69
2022/01/20 14:36:54;;;;;;;16.65;3.55;;;;;;;;;;4993344;28;92861;-70
2022/01/20 14:39:20;;;;;;;21.92;4.65;;;;;;;;;;4992204;28;97085;-70
2022/01/20 14:41:47;;;;;;;25.80;4.00;;;;;;;;;;4992424;28;92479;-70
2022/01/20 14:44:13;;;;;;;15.35;3.10;;;;;;;;;;4993002;28;93990;-69
2022/01/20 14:46:40;;;;;;;14.35;3.00;;;;;;;;;;4992894;28;93684;-69
2022/01/20 14:49:06;;;;;;;17.35;3.38;;;;;;;;;;4993406;28;92633;-69
2022/01/20 14:51:33;;;;;;;14.95;2.45;;;;;;;;;;4996345;28;94279;-69
2022/01/20 14:53:59;;;;;;;14.73;2.90;;;;;;;;;;4993298;28;92546;-70
2022/01/20 14:56:25;;;;;;;17.65;3.28;;;;;;;;;;4993933;28;93178;-70
2022/01/20 14:58:52;;;;;;;12.88;2.80;;;;;;;;;;4992846;28;93447;-70
2022/01/20 15:01:27;;;;;;;10.25;2.95;;;;;;;;;;4993363;28;93626;-70
2022/01/20 15:03:54;;;;;;;11.63;3.08;;;;;;;;;;4994192;28;94977;-71
2022/01/20 15:06:24;;;;;;;10.88;2.47;;;;;;;;;;4993660;28;93154;-66
2022/01/20 15:08:52;;;;;;;9.77;2.45;;;;;;;;;;4994488;28;92474;-69
2022/01/20 15:11:19;;;;;;;10.88;2.22;;;;;;;;;;4995321;28;92722;-70
2022/01/20 15:13:47;;;;;;;10.55;2.13;;;;;;;;;;4998509;28;93819;-68
2022/01/20 15:16:19;;;;;;;9.82;2.10;;;;;;;;;;4994996;28;92806;-69
2022/01/20 15:18:53;;;;;;;4.40;1.58;;;;;;;;;;4987728;28;94553;-68
2022/01/20 15:21:21;;;;;;;6.55;1.80;;;;;;;;;;4976208;28;91809;-69
2022/01/20 15:23:48;;;;;;;4.18;1.35;;;;;;;;;;4992888;28;93231;-69
2022/01/20 15:26:14;;;;;;;5.22;1.60;;;;;;;;;;4990912;28;93517;-69
2022/01/20 15:28:44;;;;;;;8.70;1.88;;;;;;;;;;4990797;28;94890;-69
2022/01/20 15:31:13;;;;;;;8.88;1.95;;;;;;;;;;4992880;28;96650;-70
2022/01/20 15:33:40;;;;;;;5.18;1.70;;;;;;;;;;4990933;28;94494;-69
2022/01/20 15:36:07;;;;;;;10.75;2.28;;;;;;;;;;4988368;28;92395;-69
2022/01/20 15:38:33;;;;;;;8.07;1.60;;;;;;;;;;4992242;28;93503;-70
2022/01/20 15:40:59;;;;;;;5.38;1.60;;;;;;;;;;4990611;28;92536;-70
2022/01/20 15:43:26;;;;;;;10.15;2.20;;;;;;;;;;4992955;28;94378;-69
2022/01/20 15:45:52;;;;;;;6.50;2.25;;;;;;;;;;4992648;28;92864;-69
2022/01/20 15:48:19;;;;;;;11.15;2.67;;;;;;;;;;4991733;28;92603;-70
2022/01/20 15:50:45;;;;;;;12.38;2.13;;;;;;;;;;4992419;28;93170;-69
2022/01/20 15:53:12;;;;;;;12.43;4.35;;;;;;;;;;4988940;28;96777;-70
2022/01/20 15:55:38;;;;;;;9.00;2.55;;;;;;;;;;4991489;28;92549;-70
2022/01/20 15:58:05;;;;;;;12.25;2.92;;;;;;;;;;4995458;28;93803;-70